Time;durP1;ratioP1;P1;durP2;ratioP2;P2;SDS_P1;SDS_P2;PMS_P1;PMS_P2;Temp;Humidity;BMP_temperature;BMP_pressure;BME280_temperature;BME280_humidity;BME280_pressure;Samples;Min_cycle;Max_cycle;Signal;HPM_P1;HPM_P2
2023/03/19 00:01:47;;;;;;;0.10;0.10;;;9.30;99.90;;;;;;6217770;23;20004;-89
2023/03/19 00:04:15;;;;;;;0.00;0.00;;;;;;;;;;6220067;22;20308;-90
2023/03/19 00:06:41;;;;;;;0.10;0.10;;;;;;;;;;6217922;23;20001;-90
2023/03/19 00:09:06;;;;;;;0.10;0.10;;;9.30;99.90;;;;;;6219467;23;20010;-90
2023/03/19 00:11:33;;;;;;;0.10;0.10;;;;;;;;;;6218495;23;20340;-89
2023/03/19 00:13:59;;;;;;;0.10;0.10;;;;;;;;;;6218815;23;20349;-90
2023/03/19 00:16:25;;;;;;;0.00;0.00;;;;;;;;;;6245927;22;19997;-90
2023/03/19 00:18:50;;;;;;;0.10;0.10;;;;;;;;;;6245569;23;20011;-91
2023/03/19 00:21:16;;;;;;;0.10;0.10;;;;;;;;;;6217924;23;20001;-90
2023/03/19 00:23:42;;;;;;;0.10;0.10;;;;;;;;;;6218668;23;20344;-89
2023/03/19 00:26:08;;;;;;;0.10;0.10;;;;;;;;;;6245416;22;20475;-89
2023/03/19 00:28:36;;;;;;;0.03;0.03;;;9.10;99.90;;;;;;6262081;22;20021;-86
2023/03/19 00:31:13;;;;;;;0.00;0.00;;;9.10;99.90;;;;;;6307785;22;20010;-86
2023/03/19 00:33:38;;;;;;;0.10;0.10;;;9.10;99.90;;;;;;6334964;22;20006;-86
2023/03/19 00:36:05;;;;;;;0.10;0.10;;;9.10;99.90;;;;;;6334303;22;19998;-87
2023/03/19 00:38:31;;;;;;;0.10;0.10;;;9.00;99.90;;;;;;6336689;22;20237;-88
2023/03/19 00:40:57;;;;;;;0.10;0.10;;;9.00;99.90;;;;;;6330894;22;20022;-83
2023/03/19 00:43:23;;;;;;;0.10;0.10;;;9.00;99.90;;;;;;6338255;22;20090;-89
2023/03/19 00:45:49;;;;;;;0.10;0.10;;;9.00;99.90;;;;;;6338415;22;20006;-90
2023/03/19 00:48:15;;;;;;;0.10;0.10;;;9.10;99.90;;;;;;6338382;22;20003;-89
2023/03/19 00:50:41;;;;;;;0.10;0.10;;;9.00;99.90;;;;;;6338466;22;20056;-88
2023/03/19 00:53:06;;;;;;;0.10;0.10;;;9.00;99.90;;;;;;6338436;22;20427;-89
2023/03/19 00:55:32;;;;;;;0.10;0.10;;;9.00;99.90;;;;;;6338562;22;20003;-88
2023/03/19 00:57:57;;;;;;;0.10;0.10;;;9.00;99.90;;;;;;6338569;22;19995;-89
2023/03/19 01:00:23;;;;;;;0.10;0.10;;;8.90;99.90;;;;;;6338522;22;19994;-89
2023/03/19 01:02:49;;;;;;;0.10;0.10;;;;;;;;;;6339923;22;19995;-88
2023/03/19 01:05:15;;;;;;;0.10;0.10;;;;;;;;;;6340501;22;20073;-89
2023/03/19 01:07:40;;;;;;;0.10;0.10;;;8.80;99.90;;;;;;6338251;22;20038;-89
2023/03/19 01:10:06;;;;;;;0.10;0.10;;;8.80;99.90;;;;;;6338495;22;20055;-89
2023/03/19 01:12:33;;;;;;;0.10;0.10;;;8.70;99.90;;;;;;6337987;22;20007;-89
2023/03/19 01:14:58;;;;;;;0.00;0.00;;;8.70;99.90;;;;;;6338229;22;20003;-88
2023/03/19 01:17:24;;;;;;;0.10;0.10;;;8.70;99.90;;;;;;6338055;22;20476;-88
2023/03/19 01:19:49;;;;;;;0.10;0.10;;;8.60;99.90;;;;;;6337760;22;20093;-88
2023/03/19 01:22:16;;;;;;;0.10;0.10;;;8.60;99.90;;;;;;6338533;22;20007;-89
2023/03/19 01:24:42;;;;;;;0.10;0.10;;;8.50;99.90;;;;;;6337956;22;20033;-89
2023/03/19 01:27:08;;;;;;;0.10;0.10;;;8.60;99.90;;;;;;6339787;22;19999;-89
2023/03/19 01:29:34;;;;;;;0.10;0.10;;;8.50;99.90;;;;;;6320101;22;20451;-89
2023/03/19 01:32:00;;;;;;;0.10;0.10;;;8.50;99.90;;;;;;6306900;22;20003;-89
2023/03/19 01:34:26;;;;;;;0.10;0.10;;;8.40;99.90;;;;;;6308441;22;20014;-89
2023/03/19 01:36:51;;;;;;;0.10;0.10;;;8.40;99.90;;;;;;6306766;22;20003;-91
2023/03/19 01:39:17;;;;;;;0.10;0.10;;;8.40;99.90;;;;;;6306534;22;20000;-88
2023/03/19 01:41:43;;;;;;;0.10;0.10;;;8.30;99.90;;;;;;6306834;22;20001;-89
2023/03/19 01:44:24;;;;;;;0.10;0.10;;;8.30;99.90;;;;;;6306369;22;20050;-89
2023/03/19 01:46:50;;;;;;;0.10;0.10;;;8.30;99.90;;;;;;6306634;22;20007;-90
2023/03/19 01:49:19;;;;;;;0.10;0.10;;;8.20;99.90;;;;;;6308895;22;20512;-90
2023/03/19 01:51:47;;;;;;;0.10;0.10;;;8.20;99.90;;;;;;6309166;22;20012;-90
2023/03/19 01:54:18;;;;;;;0.10;0.10;;;8.20;99.90;;;;;;6309267;22;20014;-89
2023/03/19 01:56:47;;;;;;;0.10;0.10;;;8.10;99.90;;;;;;6306176;22;20424;-89
2023/03/19 01:59:24;;;;;;;0.10;0.10;;;8.10;99.90;;;;;;6306475;22;20027;-90
2023/03/19 02:02:00;;;;;;;0.10;0.10;;;8.10;99.90;;;;;;6306975;22;20010;-90
2023/03/19 02:04:27;;;;;;;0.10;0.10;;;8.00;99.90;;;;;;6306457;22;20030;-89
2023/03/19 02:06:55;;;;;;;0.10;0.10;;;8.00;99.90;;;;;;6306293;22;20003;-90
2023/03/19 02:09:21;;;;;;;0.10;0.10;;;8.10;99.90;;;;;;6308025;22;19995;-90
2023/03/19 02:11:46;;;;;;;0.10;0.10;;;8.00;99.90;;;;;;6305776;22;20392;-89
2023/03/19 02:14:12;;;;;;;0.10;0.10;;;8.10;99.90;;;;;;6306822;22;20014;-87
2023/03/19 02:16:38;;;;;;;0.10;0.10;;;;;;;;;;6308374;22;19999;-90
2023/03/19 02:19:08;;;;;;;0.10;0.10;;;8.10;99.90;;;;;;6309596;22;20003;-90
2023/03/19 02:21:34;;;;;;;0.10;0.10;;;8.20;99.90;;;;;;6307576;22;20006;-89
2023/03/19 02:24:12;;;;;;;0.10;0.10;;;8.40;99.90;;;;;;6305785;22;20003;-90
2023/03/19 02:26:39;;;;;;;0.10;0.10;;;8.40;99.90;;;;;;6305880;22;20010;-90
2023/03/19 02:29:08;;;;;;;0.00;0.00;;;8.40;99.90;;;;;;6330426;22;20010;-89
2023/03/19 02:31:34;;;;;;;0.00;0.00;;;7.90;99.90;;;;;;6342656;22;20002;-91
2023/03/19 02:34:05;;;;;;;0.10;0.10;;;8.20;99.90;;;;;;6342503;22;20009;-89
2023/03/19 02:36:39;;;;;;;0.10;0.10;;;8.20;99.90;;;;;;6370677;22;20000;-89
2023/03/19 02:39:09;;;;;;;0.10;0.10;;;8.10;99.90;;;;;;6342630;22;19999;-89
2023/03/19 02:41:38;;;;;;;0.10;0.10;;;8.10;99.90;;;;;;6342293;22;20077;-89
2023/03/19 02:44:04;;;;;;;0.10;0.10;;;8.10;99.90;;;;;;6342114;22;19999;-89
2023/03/19 02:46:30;;;;;;;0.10;0.10;;;8.20;99.90;;;;;;6342189;22;20461;-89
2023/03/19 02:48:56;;;;;;;0.10;0.10;;;8.20;99.90;;;;;;6370209;22;20443;-88
2023/03/19 02:51:22;;;;;;;0.10;0.10;;;8.20;99.90;;;;;;6342750;22;20014;-89
2023/03/19 02:53:47;;;;;;;0.10;0.10;;;8.20;99.90;;;;;;6342562;22;20013;-88
2023/03/19 02:56:13;;;;;;;0.10;0.10;;;8.10;99.90;;;;;;6342942;22;20002;-90
2023/03/19 02:58:57;;;;;;;0.10;0.10;;;8.20;99.90;;;;;;6342689;22;20017;-88
2023/03/19 03:04:45;;;;;;;0.10;0.10;;;;;;;;;;6370028;22;20384;-89
2023/03/19 03:07:11;;;;;;;0.08;0.08;;;;;;;;;;6342884;22;20058;-89
2023/03/19 03:09:37;;;;;;;0.10;0.10;;;;;;;;;;6343646;22;20006;-87
2023/03/19 03:12:03;;;;;;;0.10;0.10;;;8.10;99.90;;;;;;6344590;22;20002;-88
2023/03/19 03:14:29;;;;;;;0.10;0.10;;;;;;;;;;6344710;22;20006;-87
2023/03/19 03:16:56;;;;;;;0.10;0.10;;;8.10;99.90;;;;;;6342140;22;20009;-88
2023/03/19 03:19:22;;;;;;;0.10;0.10;;;8.10;99.90;;;;;;6342457;22;20014;-89
2023/03/19 03:21:47;;;;;;;0.10;0.10;;;8.00;99.90;;;;;;6341973;22;20380;-89
2023/03/19 03:24:13;;;;;;;0.10;0.10;;;8.00;99.90;;;;;;6342314;22;20018;-88
2023/03/19 03:26:38;;;;;;;0.10;0.10;;;8.00;99.90;;;;;;6342124;22;20002;-89
2023/03/19 03:29:05;;;;;;;0.10;0.10;;;8.00;99.90;;;;;;6342285;22;20010;-88
2023/03/19 03:31:30;;;;;;;0.10;0.10;;;7.90;99.90;;;;;;6342154;22;20081;-89
2023/03/19 03:33:56;;;;;;;0.10;0.10;;;7.90;99.90;;;;;;6342096;22;20045;-88
2023/03/19 03:36:22;;;;;;;0.10;0.10;;;7.90;99.90;;;;;;6341674;22;20047;-88
2023/03/19 03:38:47;;;;;;;0.10;0.10;;;7.90;99.90;;;;;;6342439;22;20005;-89
2023/03/19 03:41:13;;;;;;;0.10;0.10;;;7.90;99.90;;;;;;6341908;22;20131;-89
2023/03/19 03:43:39;;;;;;;0.10;0.10;;;7.90;99.90;;;;;;6342170;22;19994;-89
2023/03/19 03:46:06;;;;;;;0.10;0.10;;;8.00;99.90;;;;;;6342305;22;19994;-90
2023/03/19 03:48:32;;;;;;;0.10;0.10;;;8.00;99.90;;;;;;6370179;22;20002;-88
2023/03/19 03:50:57;;;;;;;0.10;0.10;;;8.10;99.90;;;;;;6341791;22;19998;-89
2023/03/19 03:53:23;;;;;;;0.10;0.10;;;8.10;99.90;;;;;;6342440;22;19998;-89
2023/03/19 03:55:48;;;;;;;0.10;0.10;;;8.30;99.90;;;;;;6341975;22;20006;-89
2023/03/19 03:58:14;;;;;;;0.10;0.10;;;8.20;99.90;;;;;;6342341;22;19998;-90
2023/03/19 04:00:39;;;;;;;0.10;0.10;;;8.30;99.90;;;;;;6341739;22;20442;-89
2023/03/19 04:03:05;;;;;;;0.10;0.10;;;8.20;99.90;;;;;;6344008;22;20068;-89
2023/03/19 04:05:31;;;;;;;0.10;0.10;;;8.20;99.90;;;;;;6371920;22;20212;-88
2023/03/19 04:07:57;;;;;;;0.10;0.10;;;8.30;99.90;;;;;;6341980;22;20025;-89
2023/03/19 04:10:23;;;;;;;0.10;0.10;;;8.10;99.90;;;;;;6342050;22;20034;-88
2023/03/19 04:12:49;;;;;;;0.00;0.00;;;8.10;99.90;;;;;;6342513;22;20009;-89
2023/03/19 04:15:15;;;;;;;0.10;0.10;;;;;;;;;;6342028;22;20005;-90
2023/03/19 04:17:42;;;;;;;0.10;0.10;;;8.30;99.90;;;;;;6342609;22;20022;-90
2023/03/19 04:20:11;;;;;;;0.10;0.10;;;8.40;99.90;;;;;;6346173;22;20010;-89
2023/03/19 04:22:40;;;;;;;0.00;0.00;;;8.40;99.90;;;;;;6347076;22;20071;-89
2023/03/19 04:25:07;;;;;;;0.10;0.10;;;8.40;99.90;;;;;;6344545;22;20006;-88
2023/03/19 04:27:32;;;;;;;0.10;0.10;;;8.40;99.90;;;;;;6343386;22;20172;-88
2023/03/19 04:29:58;;;;;;;0.10;0.10;;;8.40;99.90;;;;;;6343750;22;20022;-89
2023/03/19 04:32:24;;;;;;;0.10;0.10;;;8.40;99.90;;;;;;6343288;22;20389;-89
2023/03/19 04:34:49;;;;;;;0.10;0.10;;;8.40;99.90;;;;;;6343749;22;20320;-89
2023/03/19 04:37:15;;;;;;;0.10;0.10;;;8.50;99.90;;;;;;6343732;22;20026;-89
2023/03/19 04:39:41;;;;;;;0.10;0.10;;;8.60;99.90;;;;;;6343680;22;20401;-91
2023/03/19 04:42:06;;;;;;;0.10;0.10;;;8.60;99.90;;;;;;6343855;22;20022;-89
2023/03/19 04:44:32;;;;;;;0.10;0.10;;;8.60;99.90;;;;;;6349222;22;20059;-91
2023/03/19 04:47:00;;;;;;;0.10;0.10;;;8.60;99.90;;;;;;6349060;22;20024;-88
2023/03/19 04:49:26;;;;;;;0.10;0.10;;;8.60;99.90;;;;;;6375596;22;20006;-89
2023/03/19 04:51:58;;;;;;;0.10;0.10;;;8.60;99.90;;;;;;6341561;22;20032;-86
2023/03/19 04:54:30;;;;;;;0.00;0.00;;;8.60;99.90;;;;;;6341670;22;20010;-88
2023/03/19 04:56:57;;;;;;;0.00;0.00;;;8.60;99.90;;;;;;6341590;22;20454;-88
2023/03/19 04:59:22;;;;;;;0.10;0.10;;;8.60;99.90;;;;;;6341929;22;20461;-88
2023/03/19 05:01:48;;;;;;;0.10;0.10;;;;;;;;;;6339618;22;19998;-88
2023/03/19 05:04:14;;;;;;;0.00;0.00;;;8.60;99.90;;;;;;6341248;22;20106;-88
2023/03/19 05:06:39;;;;;;;0.10;0.10;;;8.50;99.90;;;;;;6340013;22;20063;-88
2023/03/19 05:09:06;;;;;;;0.10;0.10;;;8.30;99.90;;;;;;6340421;22;20077;-88
2023/03/19 05:11:32;;;;;;;0.10;0.10;;;;;;;;;;6340838;22;20009;-88
2023/03/19 05:13:57;;;;;;;0.10;0.10;;;8.20;99.90;;;;;;6340856;22;20002;-88
2023/03/19 05:16:23;;;;;;;0.00;0.00;;;8.10;99.90;;;;;;6340166;22;20058;-88
2023/03/19 05:18:49;;;;;;;0.10;0.10;;;8.10;99.90;;;;;;6340446;22;20427;-89
2023/03/19 05:21:14;;;;;;;0.10;0.10;;;8.10;99.90;;;;;;6340263;22;20006;-89
2023/03/19 05:23:40;;;;;;;0.03;0.03;;;8.10;99.90;;;;;;6368067;22;19998;-88
2023/03/19 05:26:07;;;;;;;0.10;0.10;;;8.00;99.90;;;;;;6340299;22;20105;-86
2023/03/19 05:28:33;;;;;;;0.10;0.10;;;7.90;99.90;;;;;;6340241;22;20017;-88
2023/03/19 05:30:59;;;;;;;0.10;0.10;;;8.00;99.90;;;;;;6367318;22;20010;-88
2023/03/19 05:33:24;;;;;;;0.10;0.10;;;7.90;99.90;;;;;;6368066;22;20073;-88
2023/03/19 05:35:50;;;;;;;0.00;0.00;;;7.90;99.90;;;;;;6340527;22;20006;-88
2023/03/19 05:38:16;;;;;;;0.00;0.00;;;;;;;;;;6368574;22;19998;-87
2023/03/19 05:40:42;;;;;;;0.10;0.10;;;;;;;;;;6339304;22;20003;-88
2023/03/19 05:43:09;;;;;;;0.05;0.05;;;8.00;99.90;;;;;;6340097;22;20010;-88
2023/03/19 05:45:35;;;;;;;0.10;0.10;;;8.00;99.90;;;;;;6339811;22;20006;-88
2023/03/19 05:48:02;;;;;;;0.10;0.10;;;8.00;99.90;;;;;;6340041;22;20012;-88
2023/03/19 05:50:27;;;;;;;0.10;0.10;;;8.10;99.90;;;;;;6340071;22;20337;-89
2023/03/19 05:52:53;;;;;;;0.10;0.10;;;7.90;99.90;;;;;;6340427;22;20450;-88
2023/03/19 05:55:18;;;;;;;0.10;0.10;;;7.90;99.90;;;;;;6340705;22;20006;-88
2023/03/19 05:57:44;;;;;;;0.10;0.10;;;7.90;99.90;;;;;;6367424;22;20028;-88
2023/03/19 06:00:11;;;;;;;0.10;0.10;;;7.90;99.90;;;;;;6367352;22;20069;-87
2023/03/19 06:02:36;;;;;;;0.10;0.10;;;7.80;99.90;;;;;;6339883;22;20002;-88
2023/03/19 06:05:02;;;;;;;0.10;0.10;;;7.90;99.90;;;;;;6339297;22;20010;-88
2023/03/19 06:07:28;;;;;;;0.10;0.10;;;;;;;;;;6366493;22;20010;-89
2023/03/19 06:09:54;;;;;;;0.10;0.10;;;7.80;99.90;;;;;;6338530;22;20033;-88
2023/03/19 06:12:20;;;;;;;0.10;0.10;;;7.90;99.90;;;;;;6367355;22;20002;-88
2023/03/19 06:14:49;;;;;;;0.10;0.10;;;7.80;99.90;;;;;;6367267;22;20473;-88
2023/03/19 06:17:15;;;;;;;0.10;0.10;;;;;;;;;;6337875;22;20009;-88
2023/03/19 06:19:40;;;;;;;0.10;0.10;;;7.80;99.90;;;;;;6339588;22;20439;-87
2023/03/19 06:22:06;;;;;;;0.10;0.10;;;7.90;99.90;;;;;;6368886;22;19994;-88
2023/03/19 06:24:32;;;;;;;0.10;0.10;;;7.90;99.90;;;;;;6337687;22;20013;-88
2023/03/19 06:26:58;;;;;;;0.10;0.10;;;7.90;99.90;;;;;;6368088;22;19999;-88
2023/03/19 06:29:24;;;;;;;0.10;0.10;;;7.90;99.90;;;;;;6339040;22;20434;-87
2023/03/19 06:31:50;;;;;;;0.10;0.10;;;8.00;99.90;;;;;;6339379;22;20002;-87
2023/03/19 06:34:16;;;;;;;0.10;0.10;;;8.10;99.90;;;;;;6338989;22;20008;-87
2023/03/19 06:36:41;;;;;;;0.10;0.10;;;8.10;99.90;;;;;;6339165;22;20316;-88
2023/03/19 06:39:06;;;;;;;0.10;0.10;;;8.10;99.90;;;;;;6340593;22;20047;-88
2023/03/19 06:41:32;;;;;;;0.10;0.10;;;8.10;99.90;;;;;;6367966;22;20002;-91
2023/03/19 06:43:57;;;;;;;0.10;0.10;;;8.10;99.90;;;;;;6341937;22;20028;-89
2023/03/19 06:46:23;;;;;;;0.05;0.05;;;8.10;99.90;;;;;;6342652;22;19998;-88
2023/03/19 06:48:48;;;;;;;0.10;0.10;;;8.20;99.90;;;;;;6342408;22;20081;-90
2023/03/19 06:51:14;;;;;;;0.10;0.10;;;8.20;99.90;;;;;;6369975;22;20009;-89
2023/03/19 06:53:39;;;;;;;0.10;0.10;;;8.30;99.90;;;;;;6342407;22;19998;-89
2023/03/19 06:56:05;;;;;;;0.10;0.10;;;8.20;99.90;;;;;;6342266;22;20402;-89
2023/03/19 06:58:31;;;;;;;0.10;0.10;;;8.20;99.90;;;;;;6343238;22;20008;-90
2023/03/19 07:00:56;;;;;;;0.08;0.08;;;8.20;99.90;;;;;;6343413;22;20009;-89
2023/03/19 07:03:22;;;;;;;0.10;0.10;;;8.30;99.90;;;;;;6343420;22;20025;-89
2023/03/19 07:05:50;;;;;;;0.10;0.10;;;8.30;99.90;;;;;;6370721;22;20073;-89
2023/03/19 07:08:16;;;;;;;0.08;0.08;;;8.40;99.90;;;;;;6342648;22;20059;-89
2023/03/19 07:10:41;;;;;;;0.10;0.10;;;8.30;99.90;;;;;;6342348;22;20002;-88
2023/03/19 07:13:08;;;;;;;0.10;0.10;;;8.30;99.90;;;;;;6342092;22;20052;-88
2023/03/19 07:15:35;;;;;;;0.10;0.10;;;8.30;99.90;;;;;;6342268;22;20081;-89
2023/03/19 07:18:00;;;;;;;0.10;0.10;;;8.40;99.90;;;;;;6342384;22;20005;-89
2023/03/19 07:20:26;;;;;;;0.10;0.10;;;8.50;99.90;;;;;;6342912;22;20006;-89
2023/03/19 07:22:52;;;;;;;0.10;0.10;;;;;;;;;;6342466;22;20308;-90
2023/03/19 07:25:17;;;;;;;0.10;0.10;;;8.70;99.90;;;;;;6342795;22;20387;-89
2023/03/19 07:27:44;;;;;;;0.05;0.05;;;8.80;99.90;;;;;;6370958;22;20002;-89
2023/03/19 07:30:11;;;;;;;0.10;0.10;;;8.90;99.90;;;;;;6342747;22;20046;-88
2023/03/19 07:32:37;;;;;;;0.10;0.10;;;9.10;99.90;;;;;;6343247;22;20010;-90
2023/03/19 07:35:04;;;;;;;0.10;0.10;;;9.20;99.90;;;;;;6342993;22;20003;-89
2023/03/19 07:37:30;;;;;;;0.10;0.10;;;9.40;99.90;;;;;;6343388;22;20025;-89
2023/03/19 07:39:56;;;;;;;0.10;0.10;;;9.60;99.90;;;;;;6369774;22;19999;-89
2023/03/19 07:42:21;;;;;;;0.00;0.00;;;9.90;99.90;;;;;;6343447;22;20002;-89
2023/03/19 07:44:46;;;;;;;0.00;0.00;;;10.10;99.90;;;;;;6342831;22;20006;-89
2023/03/19 07:47:12;;;;;;;0.10;0.10;;;10.40;99.90;;;;;;6343161;22;20002;-89
2023/03/19 07:49:38;;;;;;;0.00;0.00;;;;;;;;;;6343132;22;20489;-89
2023/03/19 07:52:04;;;;;;;0.00;0.00;;;;;;;;;;6342950;22;19998;-89
2023/03/19 07:54:30;;;;;;;0.00;0.00;;;;;;;;;;6343568;22;20093;-89
2023/03/19 07:56:56;;;;;;;0.00;0.00;;;11.40;99.90;;;;;;6344960;22;20106;-90
2023/03/19 07:59:21;;;;;;;0.00;0.00;;;11.50;99.90;;;;;;6372936;22;19998;-90
2023/03/19 08:01:47;;;;;;;0.00;0.00;;;11.80;99.90;;;;;;6373728;22;20018;-89
2023/03/19 08:04:13;;;;;;;0.00;0.00;;;;;;;;;;6346210;22;20026;-90
2023/03/19 08:06:39;;;;;;;0.00;0.00;;;;;;;;;;6345909;22;20396;-89
2023/03/19 08:09:05;;;;;;;0.00;0.00;;;12.10;99.90;;;;;;6345364;22;20331;-89
2023/03/19 08:11:30;;;;;;;0.00;0.00;;;12.10;99.90;;;;;;6345487;22;20320;-90
2023/03/19 08:13:56;;;;;;;0.00;0.00;;;12.10;99.90;;;;;;6344449;22;20009;-89
2023/03/19 08:16:21;;;;;;;0.00;0.00;;;12.20;99.90;;;;;;6345481;22;20002;-89
2023/03/19 08:18:47;;;;;;;0.00;0.00;;;12.20;99.90;;;;;;6373013;22;19998;-90
2023/03/19 08:21:12;;;;;;;0.00;0.00;;;12.20;99.90;;;;;;6345667;22;19990;-90
2023/03/19 08:23:38;;;;;;;0.00;0.00;;;;;;;;;;6344558;22;20445;-90
2023/03/19 08:26:04;;;;;;;0.00;0.00;;;12.30;99.90;;;;;;6344550;22;20002;-89
2023/03/19 08:28:29;;;;;;;0.00;0.00;;;12.30;99.90;;;;;;6344246;22;20007;-90
2023/03/19 08:30:55;;;;;;;0.00;0.00;;;12.30;99.90;;;;;;6345002;22;19999;-90
2023/03/19 08:33:21;;;;;;;0.00;0.00;;;12.50;99.90;;;;;;6345584;22;20002;-90
2023/03/19 08:35:46;;;;;;;0.00;0.00;;;12.40;99.90;;;;;;6345192;22;20508;-89
2023/03/19 08:38:12;;;;;;;0.00;0.00;;;12.40;99.90;;;;;;6373919;22;20002;-90
2023/03/19 08:40:37;;;;;;;0.00;0.00;;;12.50;99.90;;;;;;6344908;22;20514;-90
2023/03/19 08:43:03;;;;;;;0.00;0.00;;;;;;;;;;6373238;22;20077;-89
2023/03/19 08:45:29;;;;;;;0.00;0.00;;;;;;;;;;6344425;22;20095;-90
2023/03/19 08:47:56;;;;;;;0.00;0.00;;;12.40;99.90;;;;;;6344974;22;20002;-90
2023/03/19 08:50:22;;;;;;;0.00;0.00;;;12.40;99.90;;;;;;6345413;22;19998;-90
2023/03/19 08:52:48;;;;;;;0.00;0.00;;;12.50;99.90;;;;;;6345084;22;20007;-91
2023/03/19 08:55:14;;;;;;;0.00;0.00;;;12.50;99.90;;;;;;6345150;22;20031;-90
2023/03/19 08:57:40;;;;;;;0.00;0.00;;;12.60;99.90;;;;;;6344632;22;20105;-91
2023/03/19 09:00:06;;;;;;;0.00;0.00;;;12.70;99.90;;;;;;6344777;22;20026;-90
2023/03/19 09:02:33;;;;;;;0.03;0.03;;;;;;;;;;6344332;22;20444;-91
2023/03/19 09:04:58;;;;;;;0.00;0.00;;;12.80;99.90;;;;;;6344481;22;20006;-91
2023/03/19 09:07:23;;;;;;;0.00;0.00;;;12.70;99.90;;;;;;6372997;22;20034;-90
2023/03/19 09:09:49;;;;;;;0.00;0.00;;;12.70;99.90;;;;;;6345397;22;20006;-90
2023/03/19 09:12:16;;;;;;;0.00;0.00;;;12.60;99.90;;;;;;6344605;22;20040;-90
2023/03/19 09:14:42;;;;;;;0.00;0.00;;;12.60;99.90;;;;;;6370542;22;20009;-90
2023/03/19 09:17:09;;;;;;;0.00;0.00;;;12.60;99.90;;;;;;6344161;22;20032;-90
2023/03/19 09:19:35;;;;;;;0.00;0.00;;;;;;;;;;6373420;22;20292;-90
2023/03/19 09:22:02;;;;;;;0.00;0.00;;;12.70;99.90;;;;;;6345064;22;19999;-90
2023/03/19 09:24:27;;;;;;;0.00;0.00;;;12.70;99.90;;;;;;6345636;22;20014;-91
2023/03/19 09:26:53;;;;;;;0.00;0.00;;;12.80;99.90;;;;;;6344892;22;20419;-89
2023/03/19 09:29:19;;;;;;;0.00;0.00;;;12.90;99.90;;;;;;6345073;22;20017;-89
2023/03/19 09:31:45;;;;;;;0.00;0.00;;;12.90;99.90;;;;;;6344639;22;20393;-89
2023/03/19 09:34:12;;;;;;;0.00;0.00;;;12.90;99.90;;;;;;6344170;22;20052;-90
2023/03/19 09:36:38;;;;;;;0.00;0.00;;;12.90;99.90;;;;;;6344825;22;20026;-89
2023/03/19 09:39:05;;;;;;;0.00;0.00;;;13.20;99.90;;;;;;6345014;22;20006;-90
2023/03/19 09:41:30;;;;;;;0.00;0.00;;;13.10;99.90;;;;;;6344601;22;20021;-89
2023/03/19 09:44:14;;;;;;;0.00;0.00;;;13.30;99.90;;;;;;6344400;22;19998;-89
2023/03/19 09:47:02;;;;;;;0.00;0.00;;;13.30;99.90;;;;;;6344885;22;19994;-90
2023/03/19 09:49:31;;;;;;;0.00;0.00;;;13.40;99.90;;;;;;6344720;22;19994;-90
2023/03/19 09:52:12;;;;;;;0.10;0.10;;;13.40;99.90;;;;;;6344726;22;20006;-89
2023/03/19 09:54:41;;;;;;;0.00;0.00;;;13.50;99.90;;;;;;6343795;22;20006;-91
2023/03/19 09:57:09;;;;;;;0.00;0.00;;;13.70;99.90;;;;;;6344041;22;20002;-90
2023/03/19 09:59:34;;;;;;;0.00;0.00;;;13.60;99.90;;;;;;6344692;22;20085;-89
2023/03/19 10:02:22;;;;;;;0.00;0.00;;;13.70;99.90;;;;;;6343959;22;20006;-89
2023/03/19 10:05:05;;;;;;;0.00;0.00;;;13.60;99.90;;;;;;6344455;22;20027;-90
2023/03/19 10:07:49;;;;;;;0.00;0.00;;;13.60;99.90;;;;;;6344031;22;20002;-89
2023/03/19 10:10:33;;;;;;;0.00;0.00;;;13.60;99.90;;;;;;6344129;22;19998;-91
2023/03/19 10:13:17;;;;;;;0.00;0.00;;;13.90;99.90;;;;;;6344142;22;20002;-89
2023/03/19 10:15:43;;;;;;;0.00;0.00;;;13.90;99.90;;;;;;6343397;22;20003;-90
2023/03/19 10:18:16;;;;;;;0.00;0.00;;;14.00;99.90;;;;;;6344075;22;20335;-91
2023/03/19 10:20:47;;;;;;;0.00;0.00;;;14.20;99.90;;;;;;6344335;22;20032;-91
2023/03/19 10:23:24;;;;;;;0.00;0.00;;;14.40;99.90;;;;;;6343557;22;20006;-89
2023/03/19 10:25:54;;;;;;;0.00;0.00;;;14.60;99.90;;;;;;6343742;22;20439;-90
2023/03/19 10:28:21;;;;;;;0.00;0.00;;;14.90;99.90;;;;;;6343248;22;19998;-88
2023/03/19 10:31:16;;;;;;;0.00;0.00;;;15.20;99.90;;;;;;6343108;22;20431;-89
2023/03/19 10:33:51;;;;;;;0.00;0.00;;;15.50;99.90;;;;;;6343672;22;20427;-89
2023/03/19 10:36:20;;;;;;;0.00;0.00;;;15.90;99.90;;;;;;6343909;22;20093;-89
2023/03/19 10:38:46;;;;;;;0.00;0.00;;;16.10;99.90;;;;;;6344110;22;20391;-91
2023/03/19 10:41:27;;;;;;;0.00;0.00;;;16.40;99.90;;;;;;6343694;22;19990;-90
2023/03/19 10:44:01;;;;;;;0.00;0.00;;;16.50;99.90;;;;;;6343825;22;20012;-90
2023/03/19 10:46:27;;;;;;;0.00;0.00;;;16.70;99.90;;;;;;6343711;22;20351;-89
2023/03/19 10:48:52;;;;;;;0.00;0.00;;;16.70;99.90;;;;;;6343760;22;20002;-90
2023/03/19 10:51:27;;;;;;;0.00;0.00;;;17.10;99.90;;;;;;6343930;22;19998;-89
2023/03/19 10:53:54;;;;;;;0.00;0.00;;;17.00;99.90;;;;;;6344327;22;20041;-89
2023/03/19 10:56:19;;;;;;;0.00;0.00;;;17.30;99.90;;;;;;6343212;22;20003;-90
2023/03/19 10:58:56;;;;;;;0.00;0.00;;;17.00;99.90;;;;;;6344513;22;20005;-91
2023/03/19 11:01:26;;;;;;;0.00;0.00;;;17.10;99.90;;;;;;6343551;22;20032;-91
2023/03/19 11:03:57;;;;;;;0.00;0.00;;;17.20;99.90;;;;;;6343767;22;20047;-90
2023/03/19 11:06:33;;;;;;;0.00;0.00;;;17.30;99.90;;;;;;6343847;22;20006;-90
2023/03/19 11:09:08;;;;;;;0.00;0.00;;;17.40;99.90;;;;;;6344032;22;19998;-90
2023/03/19 11:11:43;;;;;;;0.00;0.00;;;17.50;99.90;;;;;;6344239;22;20002;-89
2023/03/19 11:14:24;;;;;;;0.00;0.00;;;17.40;99.90;;;;;;6344286;22;20009;-88
2023/03/19 11:16:57;;;;;;;0.00;0.00;;;17.20;99.90;;;;;;6343657;22;20005;-90
2023/03/19 11:19:29;;;;;;;0.00;0.00;;;17.00;99.90;;;;;;6344074;22;20006;-90
2023/03/19 11:22:07;;;;;;;0.00;0.00;;;17.20;99.90;;;;;;6344310;22;20007;-89
2023/03/19 11:24:37;;;;;;;0.00;0.00;;;16.90;99.90;;;;;;6344037;22;20442;-90
2023/03/19 11:27:33;;;;;;;0.00;0.00;;;16.70;99.90;;;;;;6343428;22;20002;-92
2023/03/19 11:29:59;;;;;;;0.00;0.00;;;;;;;;;;6304039;22;20027;-89
2023/03/19 11:32:36;;;;;;;0.00;0.00;;;16.70;99.90;;;;;;6346646;22;20380;-88
2023/03/19 11:35:37;;;;;;;0.00;0.00;;;16.80;99.90;;;;;;6346920;22;20007;-88
2023/03/19 11:38:03;;;;;;;0.00;0.00;;;16.80;99.90;;;;;;6319745;22;20037;-88
2023/03/19 11:40:46;;;;;;;0.00;0.00;;;16.70;99.90;;;;;;6346992;22;20397;-90
2023/03/19 11:43:12;;;;;;;0.00;0.00;;;;;;;;;;6345047;22;19994;-90
2023/03/19 11:45:58;;;;;;;0.00;0.00;;;16.60;99.90;;;;;;6345594;22;20417;-90
2023/03/19 11:49:04;;;;;;;0.00;0.00;;;16.70;99.90;;;;;;6346109;22;20002;-90
2023/03/19 11:51:35;;;;;;;0.00;0.00;;;16.80;99.90;;;;;;6292524;22;20016;-91
2023/03/19 11:54:12;;;;;;;0.00;0.00;;;16.80;99.90;;;;;;6345693;22;20009;-90
2023/03/19 11:56:47;;;;;;;0.00;0.00;;;16.80;99.90;;;;;;6345648;22;20000;-91
2023/03/19 11:59:37;;;;;;;0.00;0.00;;;16.70;99.90;;;;;;6346517;22;20026;-91
2023/03/19 12:02:18;;;;;;;;;;;16.80;99.90;;;;;;6346355;22;19998;-91
2023/03/19 12:05:04;;;;;;;0.00;0.00;;;16.70;99.90;;;;;;6371551;22;19898;-90
2023/03/19 12:07:53;;;;;;;0.00;0.00;;;16.70;99.90;;;;;;6344017;22;20010;-90
2023/03/19 12:10:44;;;;;;;0.00;0.00;;;16.60;99.90;;;;;;6344565;22;19998;-90
2023/03/19 12:13:19;;;;;;;0.00;0.00;;;16.60;99.90;;;;;;6345469;22;20814;-90
2023/03/19 12:16:08;;;;;;;0.00;0.00;;;16.50;99.90;;;;;;6345545;22;20002;-88
2023/03/19 12:19:10;;;;;;;0.00;0.00;;;16.50;99.90;;;;;;6300115;22;20013;-91
2023/03/19 12:22:01;;;;;;;0.00;0.00;;;16.50;99.90;;;;;;6344855;22;20026;-90
2023/03/19 13:19:51;;;;;;;0.00;0.00;;;17.20;99.90;;;;;;6273352;22;20027;-90
2023/03/19 13:22:24;;;;;;;0.00;0.00;;;17.30;99.90;;;;;;6260827;23;20023;-89
2023/03/19 13:24:52;;;;;;;0.00;0.00;;;17.20;99.90;;;;;;6253844;23;20019;-88
2023/03/19 13:27:25;;;;;;;0.00;0.00;;;17.30;99.90;;;;;;6263236;23;20011;-92
2023/03/19 13:30:10;;;;;;;0.00;0.00;;;17.40;99.90;;;;;;6257480;23;20047;-90
2023/03/19 13:33:09;;;;;;;0.00;0.00;;;17.40;99.90;;;;;;6253330;23;20048;-91
2023/03/19 13:35:57;;;;;;;0.00;0.00;;;17.40;99.90;;;;;;6263268;23;20012;-90
2023/03/19 13:38:33;;;;;;;0.00;0.00;;;17.40;99.90;;;;;;6262090;22;20015;-90
2023/03/19 13:41:00;;;;;;;0.00;0.00;;;17.40;99.90;;;;;;6259450;23;20035;-90
2023/03/19 13:43:29;;;;;;;0.00;0.00;;;17.50;99.90;;;;;;6265252;23;20000;-91
2023/03/19 13:46:16;;;;;;;0.00;0.00;;;17.50;99.90;;;;;;6264422;23;20015;-89
2023/03/19 13:48:42;;;;;;;0.00;0.00;;;;;;;;;;6262762;22;20008;-91
2023/03/19 13:51:11;;;;;;;0.00;0.00;;;17.70;99.90;;;;;;6263773;23;20035;-90
2023/03/19 13:53:57;;;;;;;0.00;0.00;;;17.80;99.90;;;;;;6252092;23;20012;-91
2023/03/19 13:56:23;;;;;;;0.00;0.00;;;;;;;;;;6263129;23;20008;-91
2023/03/19 13:58:52;;;;;;;0.00;0.00;;;17.70;99.90;;;;;;6255186;22;20012;-90
2023/03/19 14:01:24;;;;;;;0.00;0.00;;;17.80;99.90;;;;;;6262947;23;20064;-91
2023/03/19 14:04:00;;;;;;;0.00;0.00;;;18.00;99.90;;;;;;6255706;23;20008;-91
2023/03/19 14:06:37;;;;;;;0.00;0.00;;;17.80;99.90;;;;;;6262490;23;20023;-90
2023/03/19 14:09:05;;;;;;;0.00;0.00;;;17.80;99.90;;;;;;6262612;22;20000;-90
2023/03/19 14:11:34;;;;;;;0.00;0.00;;;17.60;99.90;;;;;;6237478;23;20011;-91
2023/03/19 14:14:06;;;;;;;0.00;0.00;;;17.60;99.90;;;;;;6257591;23;20004;-91